Terminal Aerodrome Forecast
Issued by NWS Sterling, VA

Current Version | Previous Version | Text Only | Print | Product List | Glossary Off
Versions: 1 2 3 4 5 6 7 8 9 10 11 12 13 14 15 16 17 18 19 20 21 22 23 24 25

000
FTUS41 KLWX 201500 AAA
TAFIAD
TAF AMD
KIAD 201506Z 2015/2118 18006KT P6SM FEW040
     FM210800 00000KT 5SM BR SCT250
     FM211300 21006KT P6SM SCT250=

USA.gov is the U.S. government's official web portal to all federal, state and local government web resources and services.